createdAt,value
2023-10-10T00:00:47.932Z,61.64
2023-10-10T00:03:14.173Z,61.70
2023-10-10T00:05:40.373Z,61.58
2023-10-10T00:08:06.592Z,61.60
2023-10-10T00:10:32.926Z,61.60
2023-10-10T00:12:59.111Z,61.68
2023-10-10T00:15:25.282Z,61.67
2023-10-10T00:17:51.470Z,61.81
2023-10-10T00:20:17.794Z,61.68
2023-10-10T00:22:44.089Z,61.69
2023-10-10T00:25:10.728Z,61.72
2023-10-10T00:27:36.868Z,61.69
2023-10-10T00:30:03.017Z,61.66
2023-10-10T00:32:29.214Z,61.66
2023-10-10T00:34:55.387Z,61.62
2023-10-10T00:37:21.558Z,61.82
2023-10-10T00:39:47.719Z,61.76
2023-10-10T00:42:13.913Z,61.62
2023-10-10T00:44:40.067Z,61.76
2023-10-10T00:47:06.362Z,61.65
2023-10-10T00:49:32.679Z,61.72
2023-10-10T00:51:58.853Z,61.71
2023-10-10T00:54:25.047Z,61.74
2023-10-10T00:56:51.195Z,61.65
2023-10-10T00:59:17.737Z,61.59
2023-10-10T01:01:44.136Z,61.71
2023-10-10T01:04:10.358Z,61.69
2023-10-10T01:06:36.523Z,61.76
2023-10-10T01:09:03.024Z,61.65
2023-10-10T01:11:29.200Z,61.63
2023-10-10T01:13:55.420Z,61.67
2023-10-10T01:16:21.688Z,61.77
2023-10-10T01:18:47.840Z,61.71
2023-10-10T01:21:14.086Z,61.74
2023-10-10T01:23:40.270Z,61.71
2023-10-10T01:26:06.479Z,61.74
2023-10-10T01:28:32.710Z,61.72
2023-10-10T01:30:59.452Z,61.64
2023-10-10T01:33:25.665Z,61.76
2023-10-10T01:35:51.847Z,61.64
2023-10-10T01:38:18.054Z,61.78
2023-10-10T01:40:44.260Z,61.82
2023-10-10T01:43:10.409Z,61.68
2023-10-10T01:45:36.576Z,61.82
2023-10-10T01:48:02.714Z,61.71
2023-10-10T01:50:29.055Z,61.76
2023-10-10T01:52:55.352Z,61.72
2023-10-10T01:55:21.545Z,61.83
2023-10-10T01:57:47.690Z,61.73
2023-10-10T02:00:13.939Z,61.79
2023-10-10T02:02:40.209Z,61.71
2023-10-10T02:05:06.509Z,61.78
2023-10-10T02:07:33.512Z,61.66
2023-10-10T02:10:00.467Z,61.80
2023-10-10T02:12:26.765Z,61.78
2023-10-10T02:14:53.247Z,61.78
2023-10-10T02:17:19.453Z,61.83
2023-10-10T02:19:45.618Z,61.84
2023-10-10T02:22:11.800Z,61.73
2023-10-10T02:24:37.965Z,61.72
2023-10-10T02:27:04.113Z,61.76
2023-10-10T02:29:30.777Z,61.80
2023-10-10T02:31:56.994Z,61.82
2023-10-10T02:34:23.186Z,61.85
2023-10-10T02:36:49.823Z,61.85
2023-10-10T02:39:16.123Z,61.70
2023-10-10T02:41:42.354Z,61.71
2023-10-10T02:44:08.549Z,61.85
2023-10-10T02:46:34.756Z,61.76
2023-10-10T02:49:00.911Z,61.79
2023-10-10T02:51:27.095Z,61.69
2023-10-10T02:53:53.247Z,61.93
2023-10-10T02:56:19.417Z,61.88
2023-10-10T02:58:45.672Z,61.70
2023-10-10T03:01:11.808Z,61.87
2023-10-10T03:03:39.882Z,61.80
2023-10-10T03:06:06.232Z,61.90
2023-10-10T03:08:32.415Z,61.81
2023-10-10T03:10:58.596Z,61.69
2023-10-10T03:13:24.777Z,61.83
2023-10-10T03:15:50.903Z,61.73
2023-10-10T03:18:17.089Z,61.83
2023-10-10T03:20:43.252Z,61.72
2023-10-10T03:23:09.516Z,61.70
2023-10-10T03:25:35.666Z,61.73
2023-10-10T03:28:01.870Z,61.63
2023-10-10T03:30:28.009Z,61.77
2023-10-10T03:32:54.316Z,61.71
2023-10-10T03:35:20.932Z,61.75
2023-10-10T03:37:47.121Z,61.70
2023-10-10T03:40:13.380Z,61.79
2023-10-10T03:42:42.363Z,61.72
2023-10-10T03:45:08.555Z,61.78
2023-10-10T03:47:34.813Z,61.79
2023-10-10T03:50:01.137Z,61.63
2023-10-10T03:52:27.312Z,61.78
2023-10-10T03:54:53.444Z,61.79
2023-10-10T03:57:19.632Z,61.62
2023-10-10T03:59:45.898Z,61.80
2023-10-10T04:02:15.185Z,61.81
2023-10-10T04:04:42.038Z,61.74
2023-10-10T04:07:08.179Z,61.82
2023-10-10T04:09:34.337Z,61.73
2023-10-10T04:12:00.497Z,61.74
2023-10-10T04:14:26.641Z,61.76
2023-10-10T04:16:52.840Z,61.78
2023-10-10T04:19:19.461Z,61.80
2023-10-10T04:21:45.619Z,61.76
2023-10-10T04:24:11.757Z,61.87
2023-10-10T04:26:37.944Z,61.81
2023-10-10T04:29:04.178Z,61.75
2023-10-10T04:31:30.362Z,61.77
2023-10-10T04:33:56.569Z,61.78
2023-10-10T04:36:22.724Z,61.71
2023-10-10T04:38:48.847Z,61.73
2023-10-10T04:41:15.523Z,61.98
2023-10-10T04:43:41.680Z,61.82
2023-10-10T04:46:07.869Z,61.80
2023-10-10T04:48:34.035Z,61.81
2023-10-10T04:51:00.180Z,61.72
2023-10-10T04:53:26.404Z,61.78
2023-10-10T04:55:52.591Z,61.88
2023-10-10T04:58:18.725Z,61.87
2023-10-10T05:00:44.877Z,61.80
2023-10-10T05:03:11.114Z,61.71
2023-10-10T05:05:37.359Z,61.76
2023-10-10T05:08:03.594Z,61.72
2023-10-10T05:10:29.779Z,61.87
2023-10-10T05:12:55.991Z,61.87
2023-10-10T05:15:22.174Z,61.71
2023-10-10T05:17:48.434Z,61.68
2023-10-10T05:20:14.767Z,61.70
2023-10-10T05:22:40.952Z,61.70
2023-10-10T05:25:07.101Z,61.61
2023-10-10T05:27:33.248Z,61.75
2023-10-10T05:29:59.387Z,61.77
2023-10-10T05:32:25.686Z,61.74
2023-10-10T05:34:51.956Z,61.76
2023-10-10T05:37:18.108Z,61.91
2023-10-10T05:39:44.343Z,61.73
2023-10-10T05:42:10.476Z,62.04
2023-10-10T05:44:36.698Z,61.79
2023-10-10T05:47:03.393Z,61.61
2023-10-10T05:49:31.916Z,61.74
2023-10-10T05:51:58.337Z,61.77
2023-10-10T05:54:24.497Z,61.80
2023-10-10T05:56:50.630Z,61.81
2023-10-10T05:59:16.803Z,61.65
2023-10-10T06:01:43.013Z,61.66
2023-10-10T06:04:09.168Z,61.80
2023-10-10T06:06:35.333Z,61.76
2023-10-10T06:09:01.752Z,61.76
2023-10-10T06:11:28.015Z,61.77
2023-10-10T06:13:54.194Z,61.75
2023-10-10T06:16:20.454Z,61.75
2023-10-10T06:18:46.843Z,61.73
2023-10-10T06:21:13.076Z,61.82
2023-10-10T06:23:39.280Z,61.92
2023-10-10T06:26:05.585Z,62.00
2023-10-10T06:28:31.842Z,61.83
2023-10-10T06:30:58.010Z,61.84
2023-10-10T06:33:24.252Z,61.79
2023-10-10T06:35:50.417Z,61.77
2023-10-10T06:38:16.618Z,61.72
2023-10-10T06:40:42.802Z,61.88
2023-10-10T06:43:09.010Z,61.88
2023-10-10T06:45:35.781Z,61.85
2023-10-10T06:48:02.098Z,61.69
2023-10-10T06:50:28.356Z,61.77
2023-10-10T06:52:54.586Z,61.86
2023-10-10T06:55:20.746Z,61.92
2023-10-10T06:57:46.893Z,61.92
2023-10-10T07:00:13.088Z,61.75
2023-10-10T07:02:39.280Z,61.93
2023-10-10T07:05:05.548Z,61.82
2023-10-10T07:07:31.746Z,61.86
2023-10-10T07:09:57.896Z,61.93
2023-10-10T07:12:24.050Z,61.87
2023-10-10T07:14:50.308Z,61.89
2023-10-10T07:17:16.546Z,61.83
2023-10-10T07:19:42.748Z,61.89
2023-10-10T07:22:08.962Z,61.77
2023-10-10T07:24:35.095Z,61.85
2023-10-10T07:27:01.276Z,61.75
2023-10-10T07:29:27.595Z,61.79
2023-10-10T07:31:53.840Z,61.76
2023-10-10T07:34:19.984Z,61.87
2023-10-10T07:36:46.164Z,61.76
2023-10-10T07:39:12.311Z,61.78
2023-10-10T07:41:38.508Z,61.80
2023-10-10T07:44:04.733Z,61.78
2023-10-10T07:46:31.035Z,61.75
2023-10-10T07:48:57.258Z,61.84
2023-10-10T07:51:23.894Z,61.82
2023-10-10T07:53:50.065Z,61.78
2023-10-10T07:56:16.274Z,61.88
2023-10-10T07:58:51.873Z,61.82
2023-10-10T08:01:19.288Z,61.76
2023-10-10T08:03:46.019Z,61.71
2023-10-10T08:06:12.272Z,61.46
2023-10-10T08:08:38.479Z,61.72
2023-10-10T08:11:04.680Z,61.69
2023-10-10T08:13:30.811Z,61.84
2023-10-10T08:15:56.986Z,61.76
2023-10-10T08:18:23.185Z,61.70
2023-10-10T08:20:49.401Z,61.65
2023-10-10T08:23:15.692Z,61.75
2023-10-10T08:25:41.918Z,61.54
2023-10-10T08:28:08.079Z,61.65
2023-10-10T08:30:34.450Z,61.63
2023-10-10T08:33:01.100Z,61.58
2023-10-10T08:35:27.346Z,61.48
2023-10-10T08:37:53.539Z,61.76
2023-10-10T08:40:19.714Z,61.59
2023-10-10T08:42:45.867Z,61.58
2023-10-10T08:45:12.022Z,61.53
2023-10-10T08:47:38.585Z,61.63
2023-10-10T08:50:04.871Z,61.50
2023-10-10T08:52:31.050Z,61.44
2023-10-10T08:54:57.216Z,61.68
2023-10-10T08:57:23.382Z,61.55
2023-10-10T08:59:49.595Z,61.62
2023-10-10T09:02:15.809Z,61.45
2023-10-10T09:04:41.994Z,61.50
2023-10-10T09:07:08.136Z,61.44
2023-10-10T09:09:34.313Z,61.44
2023-10-10T09:12:00.449Z,61.42
2023-10-10T09:14:26.656Z,61.48
2023-10-10T09:16:52.891Z,61.51
2023-10-10T09:19:19.221Z,61.58
2023-10-10T09:21:45.399Z,61.49
2023-10-10T09:24:11.540Z,61.46
2023-10-10T09:26:38.077Z,61.31
2023-10-10T09:29:04.459Z,61.42
2023-10-10T09:31:30.612Z,61.57
2023-10-10T09:33:56.758Z,61.36
2023-10-10T09:36:22.911Z,61.18
2023-10-10T09:38:49.198Z,61.54
2023-10-10T09:41:15.585Z,61.33
2023-10-10T09:43:41.828Z,61.44
2023-10-10T09:46:08.837Z,61.55
2023-10-10T09:48:37.442Z,61.43
2023-10-10T09:51:12.601Z,61.58
2023-10-10T09:53:39.796Z,61.42
2023-10-10T09:56:06.027Z,61.48
2023-10-10T09:58:32.164Z,61.22
2023-10-10T10:00:58.340Z,61.56
2023-10-10T10:03:24.532Z,61.61
2023-10-10T10:05:50.714Z,61.49
2023-10-10T10:08:16.906Z,61.54
2023-10-10T10:10:43.055Z,61.53
2023-10-10T10:13:09.204Z,61.42
2023-10-10T10:15:35.371Z,61.52
2023-10-10T10:18:01.633Z,61.48
2023-10-10T10:20:27.831Z,61.48
2023-10-10T10:22:54.045Z,61.40
2023-10-10T10:25:20.210Z,61.53
2023-10-10T10:27:46.373Z,61.52
2023-10-10T10:30:12.563Z,61.42
2023-10-10T10:32:38.753Z,61.41
2023-10-10T10:35:04.954Z,61.56
2023-10-10T10:37:31.119Z,61.49
2023-10-10T10:39:57.316Z,61.51
2023-10-10T10:42:23.476Z,61.50
2023-10-10T10:44:49.706Z,61.46
2023-10-10T10:47:16.930Z,61.44
2023-10-10T10:49:43.124Z,61.55
2023-10-10T10:52:09.296Z,61.39
2023-10-10T10:54:35.454Z,61.40
2023-10-10T10:57:01.679Z,61.43
2023-10-10T10:59:27.879Z,61.43
2023-10-10T11:01:54.233Z,61.42
2023-10-10T11:04:20.638Z,61.43
2023-10-10T11:06:46.855Z,61.52
2023-10-10T11:09:13.076Z,61.44
2023-10-10T11:11:39.255Z,61.41
2023-10-10T11:14:05.456Z,61.40
2023-10-10T11:16:31.619Z,61.47
2023-10-10T11:18:57.783Z,61.61
2023-10-10T11:21:23.968Z,61.59
2023-10-10T11:23:50.185Z,61.45
2023-10-10T11:26:16.365Z,61.38
2023-10-10T11:28:42.574Z,61.65
2023-10-10T11:31:08.951Z,61.51
2023-10-10T11:33:35.230Z,61.57
2023-10-10T11:36:01.407Z,61.62
2023-10-10T11:38:27.575Z,61.42
2023-10-10T11:40:53.768Z,61.55
2023-10-10T11:43:19.953Z,61.48
2023-10-10T11:45:46.205Z,61.58
2023-10-10T11:48:12.531Z,61.64
2023-10-10T11:50:38.826Z,61.49
2023-10-10T11:53:08.121Z,61.59
2023-10-10T11:55:34.263Z,61.71
2023-10-10T11:58:00.751Z,61.58
2023-10-10T12:00:27.950Z,61.54
2023-10-10T12:02:54.680Z,61.74
2023-10-10T12:05:20.986Z,61.67
2023-10-10T12:07:47.176Z,61.75
2023-10-10T12:10:13.325Z,61.49
2023-10-10T12:12:39.477Z,61.62
2023-10-10T12:15:05.598Z,61.71
2023-10-10T12:17:31.878Z,61.75
2023-10-10T12:19:58.110Z,61.70
2023-10-10T12:22:24.268Z,61.69
2023-10-10T12:24:50.404Z,61.64
2023-10-10T12:27:16.570Z,61.63
2023-10-10T12:29:42.837Z,61.67
2023-10-10T12:32:09.127Z,61.60
2023-10-10T12:34:35.284Z,61.71
2023-10-10T12:37:01.464Z,61.78
2023-10-10T12:39:27.630Z,61.60
2023-10-10T12:41:54.971Z,61.72
2023-10-10T12:44:23.071Z,61.54
2023-10-10T12:46:49.218Z,61.65
2023-10-10T12:49:15.368Z,61.68
2023-10-10T12:51:41.528Z,61.63
2023-10-10T12:54:07.790Z,61.65
2023-10-10T12:56:33.978Z,61.60
2023-10-10T12:59:07.938Z,61.68
2023-10-10T13:01:45.293Z,61.60
2023-10-10T13:04:11.466Z,61.62
2023-10-10T13:06:37.637Z,61.61
2023-10-10T13:09:03.788Z,61.70
2023-10-10T13:11:31.344Z,61.68
2023-10-10T13:13:57.616Z,61.63
2023-10-10T13:16:23.885Z,61.77
2023-10-10T13:18:50.101Z,61.72
2023-10-10T13:21:16.282Z,61.56
2023-10-10T13:23:42.458Z,61.64
2023-10-10T13:26:08.658Z,61.54
2023-10-10T13:28:34.786Z,61.62
2023-10-10T13:31:01.030Z,61.61
2023-10-10T13:33:27.261Z,61.59
2023-10-10T13:35:53.464Z,61.49
2023-10-10T13:38:19.742Z,61.53
2023-10-10T13:40:45.972Z,61.55
2023-10-10T13:43:12.153Z,61.54
2023-10-10T13:45:38.313Z,61.55
2023-10-10T13:48:04.629Z,61.58
2023-10-10T13:50:31.162Z,61.58
2023-10-10T13:52:57.480Z,61.48
2023-10-10T13:55:23.618Z,61.43
2023-10-10T13:57:49.793Z,61.45
2023-10-10T14:00:15.938Z,61.34
2023-10-10T14:02:42.202Z,61.48
2023-10-10T14:05:08.436Z,61.38
2023-10-10T14:07:34.619Z,61.37
2023-10-10T14:10:03.425Z,61.51
2023-10-10T14:12:30.172Z,61.44
2023-10-10T14:14:56.388Z,61.38
2023-10-10T14:17:22.616Z,61.28
2023-10-10T14:19:48.800Z,61.43
2023-10-10T14:22:14.960Z,61.40
2023-10-10T14:24:41.154Z,61.23
2023-10-10T14:27:07.299Z,61.26
2023-10-10T14:29:33.478Z,61.41
2023-10-10T14:31:59.657Z,61.25
2023-10-10T14:34:26.064Z,61.23
2023-10-10T14:36:52.763Z,61.33
2023-10-10T14:39:19.623Z,61.21
2023-10-10T14:41:45.855Z,61.16
2023-10-10T14:44:12.089Z,61.15
2023-10-10T14:46:38.265Z,61.16
2023-10-10T14:49:04.465Z,61.31
2023-10-10T14:51:30.633Z,61.23
2023-10-10T14:53:56.818Z,61.25
2023-10-10T14:56:23.047Z,61.29
2023-10-10T14:58:49.279Z,61.22
2023-10-10T15:01:15.481Z,61.16
2023-10-10T15:03:41.761Z,61.25
2023-10-10T15:06:08.036Z,61.28
2023-10-10T15:08:34.195Z,61.16
2023-10-10T15:11:00.342Z,61.18
2023-10-10T15:13:27.054Z,61.22
2023-10-10T15:15:53.224Z,61.24
2023-10-10T15:18:19.448Z,61.19
2023-10-10T15:20:45.763Z,61.21
2023-10-10T15:23:11.959Z,61.11
2023-10-10T15:25:38.110Z,61.09
2023-10-10T15:28:04.319Z,61.07
2023-10-10T15:30:30.490Z,61.11
2023-10-10T15:32:56.707Z,61.21
2023-10-10T15:35:23.008Z,61.11
2023-10-10T15:37:49.219Z,61.14
2023-10-10T15:40:15.520Z,61.11
2023-10-10T15:42:41.703Z,61.18
2023-10-10T15:45:07.834Z,61.15
2023-10-10T15:47:34.210Z,61.17
2023-10-10T15:50:00.528Z,61.11
2023-10-10T15:52:26.653Z,61.13
2023-10-10T15:54:52.784Z,61.08
2023-10-10T15:57:18.923Z,60.96
2023-10-10T15:59:45.132Z,61.07
2023-10-10T16:02:11.419Z,61.05
2023-10-10T16:04:40.112Z,61.13
2023-10-10T16:07:07.421Z,61.09
2023-10-10T16:09:33.654Z,60.95
2023-10-10T16:11:59.870Z,60.95
2023-10-10T16:14:26.130Z,61.09
2023-10-10T16:16:52.358Z,61.05
2023-10-10T16:19:18.735Z,61.07
2023-10-10T16:21:44.956Z,61.10
2023-10-10T16:24:11.098Z,61.12
2023-10-10T16:26:37.340Z,60.94
2023-10-10T16:29:03.532Z,61.10
2023-10-10T16:31:29.707Z,61.08
2023-10-10T16:33:55.888Z,61.04
2023-10-10T16:36:22.053Z,61.13
2023-10-10T16:38:48.245Z,61.00
2023-10-10T16:41:14.514Z,61.06
2023-10-10T16:46:09.761Z,60.95
2023-10-10T16:48:36.032Z,60.91
2023-10-10T16:51:02.339Z,61.01
2023-10-10T16:53:28.543Z,61.00
2023-10-10T16:55:54.733Z,61.03
2023-10-10T16:58:22.757Z,60.90
2023-10-10T17:00:50.151Z,60.93
2023-10-10T17:03:16.445Z,60.90
2023-10-10T17:05:42.722Z,60.87
2023-10-10T17:08:08.876Z,60.84
2023-10-10T17:10:35.054Z,60.86
2023-10-10T17:13:01.231Z,60.90
2023-10-10T17:15:27.363Z,60.77
2023-10-10T17:17:54.171Z,60.83
2023-10-10T17:20:20.401Z,61.16
2023-10-10T17:22:46.547Z,61.04
2023-10-10T17:25:12.703Z,61.11
2023-10-10T17:27:38.857Z,60.89
2023-10-10T17:30:05.055Z,60.94
2023-10-10T17:32:31.337Z,61.00
2023-10-10T17:34:57.539Z,60.88
2023-10-10T17:37:23.686Z,60.92
2023-10-10T17:39:49.839Z,60.86
2023-10-10T17:42:16.013Z,61.03
2023-10-10T17:44:42.230Z,60.86
2023-10-10T17:47:08.423Z,60.81
2023-10-10T17:49:34.570Z,60.93
2023-10-10T17:52:00.737Z,60.84
2023-10-10T17:54:26.910Z,60.80
2023-10-10T17:56:53.105Z,60.83
2023-10-10T17:59:19.382Z,60.97
2023-10-10T18:01:45.717Z,60.79
2023-10-10T18:04:12.061Z,60.97
2023-10-10T18:06:38.261Z,60.90
2023-10-10T18:09:04.446Z,60.75
2023-10-10T18:11:30.635Z,61.02
2023-10-10T18:13:56.817Z,60.83
2023-10-10T18:16:23.165Z,60.99
2023-10-10T18:18:49.444Z,60.87
2023-10-10T18:21:15.724Z,60.82
2023-10-10T18:23:42.381Z,60.78
2023-10-10T18:26:10.139Z,60.84
2023-10-10T18:28:36.274Z,60.79
2023-10-10T18:31:02.442Z,60.77
2023-10-10T18:33:28.728Z,60.79
2023-10-10T18:35:54.946Z,60.80
2023-10-10T18:38:21.132Z,60.89
2023-10-10T18:40:47.280Z,60.89
2023-10-10T18:43:13.455Z,60.71
2023-10-10T18:45:39.658Z,60.88
2023-10-10T18:48:05.873Z,60.75
2023-10-10T18:50:32.070Z,60.83
2023-10-10T18:52:58.259Z,60.81
2023-10-10T18:55:24.380Z,60.87
2023-10-10T18:57:50.545Z,60.80
2023-10-10T19:03:03.113Z,60.81
2023-10-10T19:05:32.197Z,60.87
2023-10-10T19:07:58.429Z,60.77
2023-10-10T19:10:28.345Z,60.91
2023-10-10T19:12:54.603Z,60.92
2023-10-10T19:15:20.880Z,60.82
2023-10-10T19:17:47.127Z,60.80
2023-10-10T19:20:13.382Z,60.75
2023-10-10T19:22:39.598Z,60.85
2023-10-10T19:25:05.758Z,60.75
2023-10-10T19:27:34.607Z,60.87
2023-10-10T19:30:01.881Z,60.80
2023-10-10T19:32:28.713Z,60.72
2023-10-10T19:35:02.082Z,60.66
2023-10-10T19:40:09.366Z,60.85
2023-10-10T19:42:35.658Z,60.82
2023-10-10T19:45:11.347Z,60.85
2023-10-10T19:47:56.362Z,60.78
2023-10-10T19:50:22.533Z,60.84
2023-10-10T19:52:48.913Z,60.88
2023-10-10T19:55:21.909Z,60.78
2023-10-10T19:57:48.864Z,60.90
2023-10-10T20:00:15.022Z,60.92
2023-10-10T20:02:41.271Z,60.91
2023-10-10T20:05:07.635Z,60.93
2023-10-10T20:07:35.848Z,60.85
2023-10-10T20:10:03.036Z,60.82
2023-10-10T20:12:29.200Z,60.96
2023-10-10T20:14:55.430Z,60.90
2023-10-10T20:17:21.671Z,60.85
2023-10-10T20:19:47.826Z,60.81
2023-10-10T20:22:13.977Z,60.91
2023-10-10T20:24:40.141Z,60.91
2023-10-10T20:27:06.292Z,60.98
2023-10-10T20:29:32.542Z,60.91
2023-10-10T20:31:58.679Z,60.85
2023-10-10T20:34:24.826Z,60.82
2023-10-10T20:36:50.995Z,60.89
2023-10-10T20:39:17.332Z,60.92
2023-10-10T20:41:43.698Z,60.97
2023-10-10T20:44:09.888Z,60.78
2023-10-10T20:46:36.055Z,61.03
2023-10-10T20:49:02.223Z,61.05
2023-10-10T20:51:28.474Z,60.98
2023-10-10T20:53:55.080Z,60.96
2023-10-10T20:56:21.266Z,60.99
2023-10-10T20:58:47.426Z,60.76
2023-10-10T21:01:13.657Z,61.04
2023-10-10T21:03:40.080Z,61.00
2023-10-10T21:06:06.460Z,60.90
2023-10-10T21:08:32.729Z,61.01
2023-10-10T21:10:59.004Z,60.96
2023-10-10T21:13:25.153Z,60.94
2023-10-10T21:15:51.317Z,61.04
2023-10-10T21:18:17.525Z,60.93
2023-10-10T21:21:00.305Z,61.14
2023-10-10T21:23:28.683Z,61.12
2023-10-10T21:25:54.854Z,60.97
2023-10-10T21:28:20.979Z,61.12
2023-10-10T21:30:47.162Z,61.00
2023-10-10T21:33:13.542Z,61.03
2023-10-10T21:35:39.829Z,61.14
2023-10-10T21:38:06.013Z,61.01
2023-10-10T21:40:32.171Z,61.14
2023-10-10T21:42:58.298Z,61.05
2023-10-10T21:45:24.462Z,61.15
2023-10-10T21:47:50.778Z,61.08
2023-10-10T21:50:17.015Z,61.37
2023-10-10T21:52:43.194Z,61.13
2023-10-10T21:55:09.364Z,61.03
2023-10-10T21:57:35.500Z,61.19
2023-10-10T22:00:01.719Z,61.06
2023-10-10T22:02:28.020Z,61.21
2023-10-10T22:04:54.220Z,61.18
2023-10-10T22:07:29.810Z,61.10
2023-10-10T22:09:56.450Z,61.19
2023-10-10T22:12:22.620Z,61.21
2023-10-10T22:14:48.786Z,61.09
2023-10-10T22:17:15.023Z,61.18
2023-10-10T22:19:41.222Z,61.21
2023-10-10T22:22:07.346Z,61.12
2023-10-10T22:24:34.041Z,61.14
2023-10-10T22:27:00.256Z,61.09
2023-10-10T22:29:26.443Z,61.10
2023-10-10T22:31:52.674Z,61.07
2023-10-10T22:34:18.842Z,61.25
2023-10-10T22:36:54.953Z,61.19
2023-10-10T22:39:28.786Z,60.92
2023-10-10T22:41:54.949Z,61.11
2023-10-10T22:44:21.117Z,61.15
2023-10-10T22:46:47.271Z,61.24
2023-10-10T22:49:13.424Z,61.16
2023-10-10T22:51:39.586Z,61.20
2023-10-10T22:54:05.828Z,61.13
2023-10-10T22:56:32.040Z,61.15
2023-10-10T22:58:58.188Z,61.18
2023-10-10T23:01:24.403Z,61.13
2023-10-10T23:03:50.679Z,61.14
2023-10-10T23:06:16.944Z,61.25
2023-10-10T23:08:43.256Z,61.20
2023-10-10T23:11:09.466Z,61.13
2023-10-10T23:13:35.625Z,61.21
2023-10-10T23:16:01.799Z,61.18
2023-10-10T23:18:28.033Z,61.21
2023-10-10T23:20:54.252Z,61.20
2023-10-10T23:23:20.452Z,61.18
2023-10-10T23:25:46.576Z,61.15
2023-10-10T23:28:12.703Z,61.26
2023-10-10T23:30:38.874Z,61.08
2023-10-10T23:33:05.200Z,61.19
2023-10-10T23:35:31.645Z,61.26
2023-10-10T23:37:58.384Z,61.27
2023-10-10T23:40:24.535Z,61.11
2023-10-10T23:42:50.700Z,61.18
2023-10-10T23:45:16.931Z,61.18
2023-10-10T23:47:43.235Z,61.10
2023-10-10T23:50:09.445Z,61.20
2023-10-10T23:52:35.626Z,61.17
2023-10-10T23:55:01.754Z,61.22
2023-10-10T23:57:27.876Z,61.26
2023-10-10T23:59:54.065Z,61.09
